Baton Rouge Metropolitan, Ryan Field
KBTR : now visible

Airfield :











YOU CAN JOIN US ON...

 
LOGIN :

Register | Disclaimer

   EN    FR    IT 

 









Legend :    VFR   Marginal VFR   IFR   Intensive IFR   Very Intensive IFR
Visi :
Ceiling :
>= 8 km
>= 3000ft
5 to 8 km
1000 to 3000 ft
1500m to 5 km
500 to 1000 ft
800 to 1500m
200 to 500 ft
< 800m
< 200 ft
Symbols :   Thunderstorms  Fog  Heavy snow  Heavy precipitations  Wind > 20 kt







- Airport Elevation : 70 ft
- IATA code : BTR


KBTR - Baton Rouge Metropolitan, Ryan Field

CURRENT METAR :
  • 201353Z 18012KT 3SM BR OVC008 22/21 A2985 RMK AO2 LTG DSNT SE RAE43 SLP107 P0000 T02220211

EXPIRED METARs :
  • 201253Z 16015KT 5SM -RA BR BKN009 OVC013 22/21 A2983 RMK AO2 TSB09E27 CIG 006V011 SLP101 P0011 T02220211
  • 201227Z 18012KT 5SM VCTS -RA BR BKN008 BKN013 OVC020 22/21 A2983 RMK AO2 LTG DSNT NE TSB09E27 P0011 T02170211
  • 201216Z 17013G22KT 2SM +TSRA BR OVC010 22/21 A2983 RMK AO2 TSB09 P0006 T02170211
  • 201210Z 17015G20KT 3SM TSRA BR OVC010 22/21 A2983 RMK AO2 TSB09 P0004 T02220211
  • 201153Z 17014G24KT 6SM VCTS -RA BR OVC010 22/21 A2982 RMK AO2 LTG DSNT S RAE1054B17 CIG 007V013 SLP099 P0000 60004 70007 T02220211 10222 20183 55007

TAF KBTR
Valid from the 20 at 12:00 until the 21 at 12:00 UTC


201139Z 2012/2112 18011KT P6SM SHRA BKN008 OVC025
TEMPO 2012/2015 1SM TSRA OVC006CB
FM201700 29007KT P6SM VCSH OVC010
FM202200 32006KT P6SM BKN030
FM210400 VRB04KT P6SM VCSH OVC010
FM211000 04006KT 4SM BR OVC006
KZHU FIR / North America



MET'MAP, your aeronautical weather chart ! - Copyright ORBIFLY December 2007 - Disclaimer

ORBIFLY MET'MAP TEAM :

Programming & Development : Alexandra Zaïnal
Concept & Development : Baudouin d'Aumeries
Co-Development & Prog : Marc-Olivier Méhu
Technical & hardware support : Manuel Goepfert

Contact : metmap@orbifly.com




SOURCES & CREDITS :

   NOAA       Earth
Advisory